createdAt,value
2022-09-30T00:02:58.450Z,8.82
2022-09-30T00:07:11.053Z,8.80
2022-09-30T00:11:26.212Z,8.68
2022-09-30T00:15:38.734Z,8.62
2022-09-30T00:19:51.300Z,8.65
2022-09-30T00:24:05.455Z,8.68
2022-09-30T00:28:18.197Z,8.78
2022-09-30T00:32:30.516Z,8.76
2022-09-30T00:36:51.792Z,8.68
2022-09-30T00:41:04.722Z,8.63
2022-09-30T00:45:20.573Z,8.63
2022-09-30T00:49:34.034Z,8.53
2022-09-30T00:53:53.377Z,8.44
2022-09-30T00:58:07.549Z,8.39
2022-09-30T01:02:19.928Z,8.33
2022-09-30T01:06:32.313Z,8.32
2022-09-30T01:10:45.474Z,8.35
2022-09-30T01:15:00.657Z,8.48
2022-09-30T01:19:39.855Z,8.56
2022-09-30T01:24:20.134Z,8.52
2022-09-30T01:28:58.125Z,8.62
2022-09-30T01:33:41.245Z,8.59
2022-09-30T01:38:21.450Z,8.55
2022-09-30T01:42:45.633Z,8.52
2022-09-30T01:47:26.328Z,8.58
2022-09-30T01:51:48.218Z,8.56
2022-09-30T01:56:11.897Z,8.61
2022-09-30T02:00:25.393Z,8.63
2022-09-30T02:04:44.655Z,8.71
2022-09-30T02:09:08.403Z,8.76
2022-09-30T02:13:26.304Z,8.71
2022-09-30T02:17:47.582Z,8.81
2022-09-30T02:22:04.101Z,8.77
2022-09-30T02:26:27.756Z,8.70
2022-09-30T02:30:46.270Z,8.72
2022-09-30T02:35:06.120Z,8.73
2022-09-30T02:39:30.530Z,8.65
2022-09-30T02:43:43.275Z,8.65
2022-09-30T02:48:11.457Z,8.63
2022-09-30T02:53:04.873Z,8.53
2022-09-30T02:57:36.997Z,8.58
2022-09-30T03:01:49.692Z,8.48
2022-09-30T03:06:02.915Z,8.31
2022-09-30T03:10:17.472Z,8.20
2022-09-30T03:14:51.399Z,8.09
2022-09-30T03:19:06.692Z,8.02
2022-09-30T03:23:45.135Z,8.00
2022-09-30T03:28:15.852Z,8.04
2022-09-30T03:32:50.385Z,8.06
2022-09-30T03:37:09.377Z,8.11
2022-09-30T03:41:39.652Z,8.19
2022-09-30T03:46:01.989Z,8.24
2022-09-30T03:50:20.335Z,8.34
2022-09-30T03:54:34.130Z,8.30
2022-09-30T03:58:47.119Z,8.38
2022-09-30T04:02:59.456Z,8.37
2022-09-30T04:07:12.189Z,8.43
2022-09-30T04:11:24.606Z,8.42
2022-09-30T04:15:37.914Z,8.43
2022-09-30T04:19:50.721Z,8.44
2022-09-30T04:24:03.260Z,8.41
2022-09-30T04:28:15.827Z,8.37
2022-09-30T04:32:29.706Z,8.39
2022-09-30T04:36:42.369Z,8.42
2022-09-30T04:40:55.742Z,8.30
2022-09-30T04:45:08.744Z,8.19
2022-09-30T04:49:21.122Z,8.23
2022-09-30T04:53:33.731Z,8.19
2022-09-30T04:57:46.314Z,8.16
2022-09-30T05:01:58.696Z,8.14
2022-09-30T05:06:11.998Z,8.12
2022-09-30T05:10:24.840Z,8.05
2022-09-30T05:14:37.347Z,7.92
2022-09-30T05:18:50.357Z,7.83
2022-09-30T05:23:02.716Z,7.73
2022-09-30T05:27:15.235Z,7.70
2022-09-30T05:31:27.894Z,7.73
2022-09-30T05:35:44.119Z,7.89
2022-09-30T05:39:56.477Z,8.03
2022-09-30T05:44:10.024Z,8.13
2022-09-30T05:48:24.057Z,8.31
2022-09-30T05:52:36.418Z,8.40
2022-09-30T05:56:50.344Z,8.50
2022-09-30T06:01:13.220Z,8.52
2022-09-30T06:05:26.634Z,8.61
2022-09-30T06:09:39.065Z,8.66
2022-09-30T06:13:51.617Z,8.76
2022-09-30T06:18:04.744Z,8.89
2022-09-30T06:22:18.940Z,9.01
2022-09-30T06:26:31.267Z,9.13
2022-09-30T06:30:45.645Z,9.30
2022-09-30T06:34:58.578Z,9.62
2022-09-30T06:39:13.704Z,9.95
2022-09-30T06:43:26.620Z,10.45
2022-09-30T06:47:40.843Z,10.79
2022-09-30T06:51:54.862Z,11.02
2022-09-30T06:56:07.464Z,11.59
2022-09-30T07:00:20.232Z,11.75
2022-09-30T07:04:33.030Z,11.94
2022-09-30T07:08:45.376Z,11.88
2022-09-30T07:12:57.888Z,11.67
2022-09-30T07:17:10.235Z,11.96
2022-09-30T07:21:22.697Z,12.08
2022-09-30T07:25:35.171Z,12.39
2022-09-30T07:30:08.261Z,12.40
2022-09-30T07:34:20.895Z,12.46
2022-09-30T07:38:33.242Z,12.85
2022-09-30T07:42:46.411Z,13.00
2022-09-30T07:46:59.471Z,13.01
2022-09-30T07:51:16.085Z,12.86
2022-09-30T07:55:29.884Z,13.22
2022-09-30T07:59:43.432Z,12.93
2022-09-30T08:03:58.237Z,13.37
2022-09-30T08:08:10.643Z,12.91
2022-09-30T08:12:23.123Z,12.87
2022-09-30T08:16:35.504Z,12.70
2022-09-30T08:20:48.189Z,13.24
2022-09-30T08:25:00.677Z,13.68
2022-09-30T08:29:20.530Z,13.56
2022-09-30T08:33:33.785Z,14.27
2022-09-30T08:37:46.390Z,15.24
2022-09-30T08:42:40.374Z,15.81
2022-09-30T08:47:09.686Z,15.97
2022-09-30T08:51:39.844Z,15.07
2022-09-30T08:55:55.323Z,16.03
2022-09-30T09:00:13.332Z,16.56
2022-09-30T09:04:25.983Z,16.07
2022-09-30T09:09:03.923Z,15.33
2022-09-30T09:13:49.972Z,14.52
2022-09-30T09:18:29.941Z,14.58
2022-09-30T09:22:44.912Z,14.12
2022-09-30T09:27:02.354Z,14.93
2022-09-30T09:31:18.182Z,15.79
2022-09-30T09:35:48.818Z,16.31
2022-09-30T09:40:12.793Z,16.10
2022-09-30T09:44:41.600Z,16.09
2022-09-30T09:49:21.143Z,16.20
2022-09-30T09:53:51.742Z,15.10
2022-09-30T09:58:14.745Z,15.70
2022-09-30T10:02:30.366Z,15.43
2022-09-30T10:06:50.758Z,15.22
2022-09-30T10:11:06.142Z,15.14
2022-09-30T10:15:27.197Z,15.73
2022-09-30T10:19:41.225Z,15.84
2022-09-30T10:23:54.171Z,15.77
2022-09-30T10:28:23.582Z,15.38
2022-09-30T10:32:36.918Z,15.48
2022-09-30T10:36:50.456Z,15.47
2022-09-30T10:41:05.061Z,15.71
2022-09-30T10:45:22.353Z,15.57
2022-09-30T10:49:41.391Z,15.19
2022-09-30T10:53:54.998Z,15.77
2022-09-30T10:58:26.366Z,16.38
2022-09-30T11:02:50.595Z,15.92
2022-09-30T11:07:28.611Z,16.10
2022-09-30T11:11:48.040Z,16.06
2022-09-30T11:16:09.782Z,17.04
2022-09-30T11:20:44.300Z,16.71
2022-09-30T11:24:58.133Z,16.66
2022-09-30T11:29:39.801Z,16.49
2022-09-30T11:34:01.829Z,16.94
2022-09-30T11:38:29.405Z,17.10
2022-09-30T11:42:56.355Z,16.90
2022-09-30T11:47:08.700Z,16.30
2022-09-30T11:51:42.583Z,16.29
2022-09-30T11:56:25.191Z,16.05
2022-09-30T12:00:47.259Z,15.78
2022-09-30T12:05:33.852Z,16.78
2022-09-30T12:09:54.511Z,16.65
2022-09-30T12:14:16.802Z,16.75
2022-09-30T12:18:40.148Z,17.11
2022-09-30T12:22:56.877Z,17.23
2022-09-30T12:27:34.875Z,16.82
2022-09-30T12:32:02.397Z,16.89
2022-09-30T12:36:27.858Z,17.27
2022-09-30T12:40:52.768Z,16.98
2022-09-30T12:45:26.827Z,16.47
2022-09-30T12:49:42.378Z,16.99
2022-09-30T12:54:21.309Z,16.84
2022-09-30T12:58:38.421Z,17.37
2022-09-30T13:02:58.843Z,17.59
2022-09-30T13:07:19.637Z,17.81
2022-09-30T13:11:56.399Z,17.28
2022-09-30T13:16:10.436Z,16.94
2022-09-30T13:20:51.268Z,16.20
2022-09-30T13:25:11.742Z,15.94
2022-09-30T13:29:23.996Z,15.72
2022-09-30T13:33:46.629Z,15.68
2022-09-30T13:38:17.381Z,15.61
2022-09-30T13:42:35.352Z,15.52
2022-09-30T13:46:57.549Z,15.42
2022-09-30T13:51:15.672Z,15.18
2022-09-30T13:55:35.266Z,15.88
2022-09-30T14:00:29.791Z,16.48
2022-09-30T14:04:48.251Z,16.74
2022-09-30T14:09:16.504Z,17.00
2022-09-30T14:14:06.160Z,16.91
2022-09-30T14:18:40.796Z,16.67
2022-09-30T14:22:54.040Z,17.07
2022-09-30T14:27:24.645Z,16.79
2022-09-30T14:31:45.394Z,17.20
2022-09-30T14:36:02.464Z,17.06
2022-09-30T14:40:21.069Z,16.87
2022-09-30T14:44:37.198Z,17.54
2022-09-30T14:48:51.400Z,17.08
2022-09-30T14:53:04.511Z,16.07
2022-09-30T14:57:18.225Z,16.33
2022-09-30T15:01:35.963Z,15.59
2022-09-30T15:05:48.441Z,15.83
2022-09-30T15:10:02.574Z,15.59
2022-09-30T15:14:23.320Z,15.23
2022-09-30T15:18:45.392Z,15.12
2022-09-30T15:23:01.858Z,15.26
2022-09-30T15:27:22.477Z,15.02
2022-09-30T15:31:35.309Z,15.04
2022-09-30T15:35:48.839Z,14.86
2022-09-30T15:40:21.519Z,14.94
2022-09-30T15:44:39.156Z,15.03
2022-09-30T15:48:51.889Z,14.85
2022-09-30T15:53:06.089Z,14.81
2022-09-30T15:57:41.163Z,14.53
2022-09-30T16:01:57.496Z,14.21
2022-09-30T16:06:13.353Z,14.26
2022-09-30T16:10:25.704Z,14.14
2022-09-30T16:14:45.143Z,14.04
2022-09-30T16:18:59.796Z,13.72
2022-09-30T16:23:29.558Z,13.54
2022-09-30T16:27:42.159Z,13.26
2022-09-30T16:31:57.158Z,13.15
2022-09-30T16:36:10.867Z,13.17
2022-09-30T16:40:25.495Z,12.96
2022-09-30T16:44:38.653Z,12.86
2022-09-30T16:48:51.075Z,12.79
2022-09-30T16:53:03.682Z,12.79
2022-09-30T16:57:16.213Z,12.71
2022-09-30T17:01:29.134Z,12.57
2022-09-30T17:05:43.706Z,12.57
2022-09-30T17:09:56.431Z,12.41
2022-09-30T17:14:08.871Z,12.37
2022-09-30T17:18:21.548Z,12.38
2022-09-30T17:22:33.878Z,12.36
2022-09-30T17:26:46.579Z,12.34
2022-09-30T17:31:00.473Z,12.28
2022-09-30T17:35:13.612Z,12.27
2022-09-30T17:39:28.830Z,12.15
2022-09-30T17:43:41.168Z,12.09
2022-09-30T17:47:55.320Z,12.07
2022-09-30T17:52:07.649Z,12.15
2022-09-30T17:56:23.216Z,12.18
2022-09-30T18:00:35.891Z,12.12
2022-09-30T18:04:48.329Z,12.06
2022-09-30T18:09:01.310Z,12.03
2022-09-30T18:13:13.659Z,12.03
2022-09-30T18:17:26.432Z,12.00
2022-09-30T18:21:39.081Z,11.95
2022-09-30T18:25:52.786Z,11.90
2022-09-30T18:30:06.359Z,11.88
2022-09-30T18:34:20.963Z,11.91
2022-09-30T18:38:36.689Z,11.86
2022-09-30T18:42:49.538Z,11.78
2022-09-30T18:47:01.919Z,11.86
2022-09-30T18:51:14.387Z,11.89
2022-09-30T18:55:26.824Z,11.91
2022-09-30T18:59:39.332Z,12.08
2022-09-30T19:03:53.419Z,12.00
2022-09-30T19:08:05.759Z,12.05
2022-09-30T19:12:19.441Z,11.91
2022-09-30T19:16:38.675Z,11.91
2022-09-30T19:20:51.586Z,11.82
2022-09-30T19:25:10.728Z,11.86
2022-09-30T19:29:24.338Z,11.63
2022-09-30T19:33:42.996Z,11.54
2022-09-30T19:38:02.855Z,11.51
2022-09-30T19:42:18.995Z,11.46
2022-09-30T19:46:31.668Z,11.45
2022-09-30T19:50:44.523Z,11.48
2022-09-30T19:55:05.672Z,11.50
2022-09-30T19:59:24.061Z,11.53
2022-09-30T20:03:38.101Z,11.48
2022-09-30T20:07:51.821Z,11.51
2022-09-30T20:12:04.577Z,11.56
2022-09-30T20:16:17.723Z,11.56
2022-09-30T20:20:35.691Z,11.63
2022-09-30T20:24:48.092Z,11.65
2022-09-30T20:29:01.434Z,11.61
2022-09-30T20:33:19.839Z,11.58
2022-09-30T20:37:32.256Z,11.54
2022-09-30T20:41:45.975Z,11.61
2022-09-30T20:46:02.154Z,11.54
2022-09-30T20:50:14.723Z,11.46
2022-09-30T20:54:27.025Z,11.37
2022-09-30T20:58:40.159Z,11.44
2022-09-30T21:02:53.127Z,11.44
2022-09-30T21:07:05.543Z,11.42
2022-09-30T21:11:19.389Z,11.41
2022-09-30T21:15:32.048Z,11.39
2022-09-30T21:19:44.482Z,11.39
2022-09-30T21:23:58.303Z,11.39
2022-09-30T21:28:11.291Z,11.38
2022-09-30T21:32:23.772Z,11.43
2022-09-30T21:36:37.291Z,11.49
2022-09-30T21:40:49.911Z,11.47
2022-09-30T21:45:02.949Z,11.42
2022-09-30T21:49:18.027Z,11.30
2022-09-30T21:53:30.844Z,11.26
2022-09-30T21:57:44.115Z,11.01
2022-09-30T22:01:56.553Z,10.77
2022-09-30T22:06:10.923Z,10.53
2022-09-30T22:10:23.408Z,10.33
2022-09-30T22:14:38.326Z,10.12
2022-09-30T22:18:55.478Z,9.96
2022-09-30T22:23:09.310Z,9.79
2022-09-30T22:27:23.876Z,9.62
2022-09-30T22:31:36.599Z,9.45
2022-09-30T22:36:07.937Z,9.33
2022-09-30T22:40:22.342Z,9.22
2022-09-30T22:44:37.010Z,9.12
2022-09-30T22:48:49.465Z,8.98
2022-09-30T22:53:02.446Z,8.89
2022-09-30T22:57:14.796Z,8.82
2022-09-30T23:01:30.081Z,8.71
2022-09-30T23:05:42.491Z,8.66
2022-09-30T23:09:55.133Z,8.72
2022-09-30T23:14:07.475Z,8.93
2022-09-30T23:18:19.806Z,9.14
2022-09-30T23:22:32.371Z,9.35
2022-09-30T23:26:44.744Z,9.49
2022-09-30T23:31:01.584Z,9.62
2022-09-30T23:35:14.907Z,9.67
2022-09-30T23:39:27.256Z,9.74
2022-09-30T23:43:39.664Z,9.81
2022-09-30T23:47:52.008Z,9.80
2022-09-30T23:52:09.194Z,9.82
2022-09-30T23:56:24.937Z,9.83
